Time;durP1;ratioP1;P1;durP2;ratioP2;P2;SDS_P1;SDS_P2;PMS_P1;PMS_P2;Temp;Humidity;BMP_temperature;BMP_pressure;BME280_temperature;BME280_humidity;BME280_pressure;Samples;Min_cycle;Max_cycle;Signal;HPM_P1;HPM_P2
2021/10/07 00:02:21;;;;;;;;;;;;;;;12.77;79.06;101838.44;5084252;28;19972;-75
2021/10/07 00:04:49;;;;;;;;;;;;;;;12.75;78.94;101844.81;5086563;28;20398;-75
2021/10/07 00:07:17;;;;;;;;;;;;;;;12.73;79.31;101849.41;5088622;28;19991;-75
2021/10/07 00:09:45;;;;;;;;;;;;;;;12.69;78.90;101845.16;5088943;28;19968;-74
2021/10/07 00:12:12;;;;;;;;;;;;;;;12.66;78.71;101848.06;5088783;28;19969;-74
2021/10/07 00:14:41;;;;;;;;;;;;;;;12.63;78.97;101853.63;5089250;28;19968;-75
2021/10/07 00:17:10;;;;;;;;;;;;;;;12.58;79.34;101853.03;5088611;28;19968;-75
2021/10/07 00:19:38;;;;;;;;;;;;;;;12.58;78.85;101855.72;5089089;28;19975;-74
2021/10/07 00:22:06;;;;;;;;;;;;;;;12.48;79.10;101854.50;5085581;28;19969;-75
2021/10/07 00:24:34;;;;;;;;;;;;;;;12.44;79.33;101858.34;5088396;28;20067;-75
2021/10/07 00:27:01;;;;;;;;;;;;;;;12.35;78.99;101858.88;5088466;28;19984;-75
2021/10/07 00:32:15;;;;;;;;;;;;;;;12.32;79.40;101864.44;5082721;28;20473;-75
2021/10/07 00:35:06;;;;;;;;;;;;;;;12.28;79.97;101862.88;5088326;28;21430;-75
2021/10/07 00:40:18;;;;;;;;;;;;;;;12.31;79.19;101868.94;5057137;28;19983;-74
2021/10/07 00:42:46;;;;;;;;;;;;;;;12.31;79.15;101874.34;5088704;28;19972;-75
2021/10/07 00:45:16;;;;;;;;;;;;;;;12.31;79.07;101876.16;5070143;28;20155;-75
2021/10/07 00:47:45;;;;;;;;;;;;;;;12.29;79.21;101873.56;5088441;28;20491;-75
2021/10/07 00:50:13;;;;;;;;;;;;;;;12.25;79.19;101871.13;5088251;28;19993;-75
2021/10/07 00:52:41;;;;;;;;;;;;;;;12.23;79.56;101881.09;5069292;28;19968;-74
2021/10/07 00:55:11;;;;;;;;;;;;;;;12.12;79.51;101893.34;5085424;28;20010;-75
2021/10/07 00:57:40;;;;;;;;;;;;;;;12.07;79.23;101898.13;5088021;28;19976;-75
2021/10/07 01:00:08;;;;;;;;;;;;;;;11.97;79.17;101901.41;5088322;28;19968;-75
2021/10/07 01:02:37;;;;;;;;;;;;;;;11.94;79.66;101912.31;5086353;28;19969;-74
2021/10/07 01:05:08;;;;;;;;;;;;;;;11.89;79.44;101903.63;5087933;28;20028;-75
2021/10/07 01:07:36;;;;;;;;;;;;;;;11.85;80.01;101911.00;5087368;28;19997;-74
2021/10/07 01:10:04;;;;;;;;;;;;;;;11.80;80.13;101905.88;5087624;28;20785;-75
2021/10/07 01:12:31;;;;;;;;;;;;;;;11.74;80.03;101911.56;5085820;28;19972;-75
2021/10/07 01:14:59;;;;;;;;;;;;;;;11.68;80.55;101917.28;5086874;28;20347;-75
2021/10/07 01:17:29;;;;;;;;;;;;;;;11.62;80.80;101922.09;5087040;28;19991;-75
2021/10/07 01:19:59;;;;;;;;;;;;;;;11.56;80.85;101927.81;5087760;28;19968;-75
2021/10/07 01:22:28;;;;;;;;;;;;;;;11.56;80.09;101928.69;5087978;28;19968;-75
2021/10/07 01:24:56;;;;;;;;;;;;;;;11.50;80.43;101935.25;5087895;28;20483;-75
2021/10/07 01:27:25;;;;;;;;;;;;;;;11.47;80.12;101937.25;5088023;28;19992;-75
2021/10/07 01:29:53;;;;;;;;;;;;;;;11.44;80.32;101938.28;5088448;28;19975;-75
2021/10/07 01:32:21;;;;;;;;;;;;;;;11.36;81.02;101948.56;5087090;28;19979;-74
2021/10/07 01:34:49;;;;;;;;;;;;;;;11.39;80.29;101950.22;5088016;28;20071;-74
2021/10/07 01:37:19;;;;;;;;;;;;;;;11.39;80.39;101948.41;5087853;28;19968;-75
2021/10/07 01:39:47;;;;;;;;;;;;;;;11.37;80.29;101954.81;5087757;28;19973;-74
2021/10/07 01:42:15;;;;;;;;;;;;;;;11.36;80.22;101953.97;5087692;28;20071;-75
2021/10/07 01:44:43;;;;;;;;;;;;;;;11.30;80.75;101953.38;5088311;28;19969;-75
2021/10/07 01:47:10;;;;;;;;;;;;;;;11.27;80.30;101951.72;5086866;28;19988;-76
2021/10/07 01:49:38;;;;;;;;;;;;;;;11.27;80.56;101949.03;5086399;28;19968;-74
2021/10/07 01:52:06;;;;;;;;;;;;;;;11.27;80.60;101959.78;5087355;28;20339;-74
2021/10/07 01:54:36;;;;;;;;;;;;;;;11.30;80.63;101958.75;5069760;28;20237;-74
2021/10/07 01:57:04;;;;;;;;;;;;;;;11.31;80.77;101957.81;5088145;28;20407;-75
2021/10/07 01:59:32;;;;;;;;;;;;;;;11.34;80.71;101966.63;5069566;28;19973;-75
2021/10/07 02:02:00;;;;;;;;;;;;;;;11.34;81.41;101972.00;5087716;28;19968;-74
2021/10/07 02:04:28;;;;;;;;;;;;;;;11.38;80.30;101968.19;5087190;28;20273;-74
2021/10/07 02:06:56;;;;;;;;;;;;;;;11.41;80.70;101965.34;5087423;28;19992;-74
2021/10/07 02:09:24;;;;;;;;;;;;;;;11.43;80.56;101966.13;5086305;28;20288;-74
2021/10/07 02:11:53;;;;;;;;;;;;;;;11.44;79.74;101970.56;5087601;28;19968;-75
2021/10/07 02:14:22;;;;;;;;;;;;;;;11.40;79.88;101971.66;5087676;28;19973;-74
2021/10/07 02:16:49;;;;;;;;;;;;;;;11.40;79.80;101977.06;5087619;28;19979;-74
2021/10/07 02:19:17;;;;;;;;;;;;;;;11.37;80.03;101979.91;5087556;28;19969;-75
2021/10/07 02:21:45;;;;;;;;;;;;;;;11.30;80.03;101989.19;5091587;28;20038;-75
2021/10/07 02:24:13;;;;;;;;;;;;;;;11.24;80.06;101976.06;5091249;28;19968;-74
2021/10/07 02:26:41;;;;;;;;;;;;;;;11.25;80.68;101972.44;5090972;28;20007;-74
2021/10/07 02:29:10;;;;;;;;;;;;;;;11.25;80.99;101972.44;5090926;28;20434;-75
2021/10/07 02:31:38;;;;;;;;;;;;;;;11.27;81.13;101969.66;5091300;28;20573;-75
2021/10/07 02:34:06;;;;;;;;;;;;;;;11.26;80.43;101974.19;5090874;28;19979;-75
2021/10/07 02:36:34;;;;;;;;;;;;;;;11.28;80.24;101984.84;5091218;28;19969;-75
2021/10/07 02:39:02;;;;;;;;;;;;;;;11.18;80.59;101979.09;5090538;28;19969;-75
2021/10/07 02:41:30;;;;;;;;;;;;;;;11.18;80.08;101984.47;5091003;28;19972;-75
2021/10/07 02:43:58;;;;;;;;;;;;;;;11.08;80.25;101992.13;5090735;28;19973;-75
2021/10/07 02:46:27;;;;;;;;;;;;;;;11.09;80.44;101987.63;5090777;28;20000;-75
2021/10/07 02:48:55;;;;;;;;;;;;;;;11.06;80.79;101993.16;5088948;28;19984;-75
2021/10/07 02:51:23;;;;;;;;;;;;;;;11.01;80.11;102000.53;5091092;28;20431;-75
2021/10/07 02:53:51;;;;;;;;;;;;;;;10.97;80.72;102001.66;5090724;28;19969;-75
2021/10/07 02:56:19;;;;;;;;;;;;;;;10.95;80.43;101995.47;5090131;28;20337;-75
2021/10/07 02:58:47;;;;;;;;;;;;;;;10.94;80.79;101988.38;5072493;28;20424;-75
2021/10/07 03:01:16;;;;;;;;;;;;;;;10.91;80.67;101985.81;5091007;28;20394;-72
2021/10/07 03:03:46;;;;;;;;;;;;;;;10.89;80.62;101988.59;5091245;28;19968;-75
2021/10/07 03:06:14;;;;;;;;;;;;;;;10.88;80.53;101989.53;5087631;28;19969;-75
2021/10/07 03:08:41;;;;;;;;;;;;;;;10.84;80.40;101993.31;5090742;28;20362;-75
2021/10/07 03:11:09;;;;;;;;;;;;;;;10.80;80.71;101989.91;5072575;28;20359;-76
2021/10/07 03:13:37;;;;;;;;;;;;;;;10.74;80.42;101997.41;5087259;28;20058;-77
2021/10/07 03:16:06;;;;;;;;;;;;;;;10.66;80.85;102003.13;5090236;28;19969;-76
2021/10/07 03:18:34;;;;;;;;;;;;;;;10.57;81.04;102000.91;5090838;28;19973;-77
2021/10/07 03:21:03;;;;;;;;;;;;;;;10.51;81.25;102002.06;5090477;28;19968;-77
2021/10/07 03:23:31;;;;;;;;;;;;;;;10.46;81.70;102004.09;5091036;28;20435;-76
2021/10/07 03:25:59;;;;;;;;;;;;;;;10.42;81.88;101993.56;5087800;28;19976;-76
2021/10/07 03:28:27;;;;;;;;;;;;;;;10.37;81.57;101985.72;5090066;28;19989;-76
2021/10/07 03:30:55;;;;;;;;;;;;;;;10.36;81.26;101983.09;5090558;28;19979;-76
2021/10/07 03:33:22;;;;;;;;;;;;;;;10.34;81.04;101983.16;5089526;28;20042;-76
2021/10/07 03:35:51;;;;;;;;;;;;;;;10.33;81.32;101985.94;5090781;28;19972;-77
2021/10/07 03:38:20;;;;;;;;;;;;;;;10.30;80.85;101986.06;5090423;28;19976;-76
2021/10/07 03:40:48;;;;;;;;;;;;;;;10.27;81.42;101982.59;5072639;28;20042;-76
2021/10/07 03:43:17;;;;;;;;;;;;;;;10.24;80.78;101987.25;5090419;28;20494;-76
2021/10/07 03:45:44;;;;;;;;;;;;;;;10.21;80.68;101999.00;5090218;28;19979;-76
2021/10/07 03:48:12;;;;;;;;;;;;;;;10.18;80.80;101999.09;5090072;28;20451;-76
2021/10/07 03:50:44;;;;;;;;;;;;;;;10.16;81.38;102006.34;5090140;28;19972;-76
2021/10/07 03:53:13;;;;;;;;;;;;;;;10.14;80.96;102005.56;5090290;28;19972;-77
2021/10/07 03:55:43;;;;;;;;;;;;;;;10.10;80.88;102012.00;5090217;28;19969;-76
2021/10/07 03:58:10;;;;;;;;;;;;;;;10.07;80.87;102030.03;5089094;28;19976;-77
2021/10/07 04:00:38;;;;;;;;;;;;;;;10.00;80.81;102034.81;5087640;28;20029;-77
2021/10/07 04:03:06;;;;;;;;;;;;;;;9.99;80.92;102035.75;5079684;28;19968;-77
2021/10/07 04:05:35;;;;;;;;;;;;;;;9.96;80.88;102044.81;5079930;28;20339;-77
2021/10/07 04:08:04;;;;;;;;;;;;;;;9.90;81.43;102034.34;5087998;28;19995;-76
2021/10/07 04:10:32;;;;;;;;;;;;;;;9.84;81.00;102041.81;5089732;28;19973;-76
2021/10/07 04:13:01;;;;;;;;;;;;;;;9.83;81.62;102046.31;5090243;28;19975;-77
2021/10/07 04:15:29;;;;;;;;;;;;;;;9.77;81.60;102051.91;5090013;28;20470;-76
2021/10/07 04:17:57;;;;;;;;;;;;;;;9.73;81.16;102058.34;5076224;28;20296;-76
2021/10/07 04:20:25;;;;;;;;;;;;;;;9.74;81.41;102064.59;5089749;28;20452;-76
2021/10/07 04:22:53;;;;;;;;;;;;;;;9.71;81.48;102070.97;5090052;28;19972;-77
2021/10/07 04:25:21;;;;;;;;;;;;;;;9.67;82.27;102080.09;5088513;28;19979;-76
2021/10/07 04:27:52;;;;;;;;;;;;;;;9.69;82.09;102080.88;5071249;28;19996;-77
2021/10/07 04:30:22;;;;;;;;;;;;;;;9.70;82.10;102082.63;5089482;28;20621;-76
2021/10/07 04:32:49;;;;;;;;;;;;;;;9.73;81.86;102087.00;5071646;28;20350;-77
2021/10/07 04:35:17;;;;;;;;;;;;;;;9.69;82.43;102086.25;5088862;28;19968;-77
2021/10/07 04:37:45;;;;;;;;;;;;;;;9.75;82.67;102087.78;5089642;28;20192;-76
2021/10/07 04:40:14;;;;;;;;;;;;;;;9.70;83.94;102089.81;5088667;28;20011;-75
2021/10/07 04:42:42;;;;;;;;;;;;;;;9.79;85.09;102101.00;5088720;28;20085;-76
2021/10/07 04:45:10;;;;;;;;;;;;;;;9.90;85.99;102098.75;5089035;28;19975;-76
2021/10/07 04:47:39;;;;;;;;;;;;;;;10.06;86.31;102109.69;5089054;28;20019;-75
2021/10/07 04:50:08;;;;;;;;;;;;;;;10.20;86.69;102107.31;5088857;28;20307;-76
2021/10/07 04:52:36;;;;;;;;;;;;;;;10.31;86.11;102111.31;5088961;28;19976;-76
2021/10/07 04:55:04;;;;;;;;;;;;;;;10.41;86.03;102115.38;5088698;28;20453;-77
2021/10/07 04:57:32;;;;;;;;;;;;;;;10.50;85.77;102123.00;5089385;28;19972;-76
2021/10/07 05:00:00;;;;;;;;;;;;;;;10.57;85.28;102119.09;5084167;28;19964;-76
2021/10/07 05:02:27;;;;;;;;;;;;;;;10.62;85.93;102119.75;5085121;28;19973;-77
2021/10/07 05:04:57;;;;;;;;;;;;;;;10.61;86.51;102123.38;5085926;28;20063;-76
2021/10/07 05:07:25;;;;;;;;;;;;;;;10.65;86.45;102133.03;5082776;28;19972;-77
2021/10/07 05:09:54;;;;;;;;;;;;;;;10.71;86.18;102127.38;5084056;28;19984;-76
2021/10/07 05:12:22;;;;;;;;;;;;;;;10.75;85.92;102129.00;5082376;28;20130;-76
2021/10/07 05:14:50;;;;;;;;;;;;;;;10.83;85.03;102132.19;5078637;28;19953;-76
2021/10/07 05:17:18;;;;;;;;;;;;;;;10.82;86.06;102141.19;5084558;28;19976;-76
2021/10/07 05:19:45;;;;;;;;;;;;;;;10.91;85.64;102133.66;5082808;28;20328;-76
2021/10/07 05:22:15;;;;;;;;;;;;;;;10.97;85.24;102125.28;5081444;28;20022;-68
2021/10/07 05:24:43;;;;;;;;;;;;;;;10.97;86.11;102134.22;5080259;28;19969;-68
2021/10/07 05:27:12;;;;;;;;;;;;;;;11.00;86.37;102135.91;5080986;28;19980;-74
2021/10/07 05:29:40;;;;;;;;;;;;;;;11.09;86.08;102125.59;5082087;28;20005;-68
2021/10/07 05:32:07;;;;;;;;;;;;;;;11.13;85.50;102131.69;5078975;28;20336;-68
2021/10/07 05:34:35;;;;;;;;;;;;;;;11.13;86.36;102134.38;5075068;28;20048;-67
2021/10/07 05:37:04;;;;;;;;;;;;;;;11.15;86.10;102136.06;5078277;28;20448;-67
2021/10/07 05:39:33;;;;;;;;;;;;;;;11.15;86.90;102140.56;5082401;28;19969;-69
2021/10/07 05:42:01;;;;;;;;;;;;;;;11.26;85.94;102135.53;5080699;28;19976;-68
2021/10/07 05:44:29;;;;;;;;;;;;;;;11.29;85.80;102140.75;5080048;28;20007;-70
2021/10/07 05:46:57;;;;;;;;;;;;;;;11.38;85.47;102143.03;5082885;28;19969;-68
2021/10/07 05:49:27;;;;;;;;;;;;;;;11.40;85.08;102138.44;5083300;28;19992;-68
2021/10/07 05:51:55;;;;;;;;;;;;;;;11.42;85.23;102141.94;5083809;28;19976;-68
2021/10/07 05:54:23;;;;;;;;;;;;;;;11.42;85.32;102151.81;5085203;28;20514;-68
2021/10/07 05:56:52;;;;;;;;;;;;;;;11.45;85.51;102151.66;5088152;28;19975;-69
2021/10/07 05:59:20;;;;;;;;;;;;;;;11.48;85.36;102151.50;5068835;28;19980;-68
2021/10/07 06:01:48;;;;;;;;;;;;;;;11.56;85.18;102159.19;5088220;28;19968;-68
2021/10/07 06:04:16;;;;;;;;;;;;;;;11.61;84.86;102167.91;5083525;28;20063;-67
2021/10/07 06:06:45;;;;;;;;;;;;;;;11.60;85.19;102171.53;5070448;28;20093;-68
2021/10/07 06:09:13;;;;;;;;;;;;;;;11.62;85.38;102172.34;5086624;28;19992;-67
2021/10/07 06:11:41;;;;;;;;;;;;;;;11.72;84.74;102177.22;5090885;28;19927;-67
2021/10/07 06:14:10;;;;;;;;;;;;;;;11.69;85.10;102187.25;5090083;28;19979;-69
2021/10/07 06:16:39;;;;;;;;;;;;;;;11.73;84.77;102192.41;5088874;28;20034;-68
2021/10/07 06:19:10;;;;;;;;;;;;;;;11.83;84.11;102200.94;5090000;28;20371;-69
2021/10/07 06:21:41;;;;;;;;;;;;;;;11.82;84.69;102201.88;5090702;28;20583;-68
2021/10/07 06:24:09;;;;;;;;;;;;;;;11.82;84.58;102208.13;5090210;28;19972;-69
2021/10/07 06:26:38;;;;;;;;;;;;;;;11.86;84.09;102211.53;5072241;28;20047;-68
2021/10/07 06:29:06;;;;;;;;;;;;;;;11.93;84.35;102218.34;5090204;28;20408;-68
2021/10/07 06:31:35;;;;;;;;;;;;;;;11.91;83.90;102225.63;5072043;28;19975;-69
2021/10/07 06:34:04;;;;;;;;;;;;;;;12.02;83.40;102228.69;5090490;28;20379;-76
2021/10/07 06:36:32;;;;;;;;;;;;;;;12.06;82.91;102235.66;5090777;28;20038;-69
2021/10/07 06:39:00;;;;;;;;;;;;;;;12.05;83.42;102247.38;5088873;28;20393;-68
2021/10/07 06:41:30;;;;;;;;;;;;;;;12.04;83.40;102240.25;5090200;28;19972;-68
2021/10/07 06:43:58;;;;;;;;;;;;;;;12.03;83.95;102243.03;5089881;28;20344;-69
2021/10/07 06:46:26;;;;;;;;;;;;;;;12.08;83.68;102243.66;5089805;28;20452;-69
2021/10/07 06:48:59;;;;;;;;;;;;;;;12.13;83.29;102245.16;5087894;28;20340;-69
2021/10/07 06:51:27;;;;;;;;;;;;;;;12.17;83.37;102247.72;5089389;28;19977;-69
2021/10/07 06:53:57;;;;;;;;;;;;;;;12.17;83.13;102242.31;5089959;28;20467;-69
2021/10/07 06:56:25;;;;;;;;;;;;;;;12.25;82.40;102251.78;5068637;28;20610;-69
2021/10/07 06:58:53;;;;;;;;;;;;;;;12.25;82.35;102245.53;5090246;28;20304;-69
2021/10/07 07:01:21;;;;;;;;;;;;;;;12.31;82.48;102250.59;5089330;28;20357;-69
2021/10/07 07:03:51;;;;;;;;;;;;;;;12.38;81.88;102258.28;5086998;28;20019;-69
2021/10/07 07:06:21;;;;;;;;;;;;;;;12.45;82.81;102266.91;5082642;28;20427;-69
2021/10/07 07:08:49;;;;;;;;;;;;;;;12.48;84.32;102268.56;5087740;28;19968;-68
2021/10/07 07:11:17;;;;;;;;;;;;;;;12.55;84.86;102279.00;5089764;28;19984;-69
2021/10/07 07:13:45;;;;;;;;;;;;;;;12.68;84.00;102280.09;5090728;28;20003;-69
2021/10/07 07:16:13;;;;;;;;;;;;;;;12.79;83.98;102278.66;5081238;28;19968;-69
2021/10/07 07:18:41;;;;;;;;;;;;;;;12.93;82.88;102284.19;5090583;28;19972;-68
2021/10/07 07:21:09;;;;;;;;;;;;;;;13.07;81.48;102290.59;5089365;28;19972;-76
2021/10/07 07:23:39;;;;;;;;;;;;;;;13.07;81.77;102300.50;5088409;28;19979;-76
2021/10/07 07:26:07;;;;;;;;;;;;;;;13.12;82.03;102303.81;5089239;28;19969;-76
2021/10/07 07:28:35;;;;;;;;;;;;;;;13.27;81.49;102311.16;5089628;28;19980;-76
2021/10/07 07:31:03;;;;;;;;;;;;;;;13.42;80.59;102316.66;5091324;28;20356;-76
2021/10/07 07:33:31;;;;;;;;;;;;;;;13.49;80.61;102320.78;5088588;28;19977;-76
2021/10/07 07:35:59;;;;;;;;;;;;;;;13.58;80.49;102328.38;5088995;28;20722;-69
2021/10/07 07:38:26;;;;;;;;;;;;;;;13.62;79.63;102324.53;5085790;28;19980;-76
2021/10/07 07:40:57;;;;;;;;;;;;;;;13.66;79.34;102327.00;5070378;28;19994;-76
2021/10/07 07:43:25;;;;;;;;;;;;;;;13.71;79.37;102326.72;5087877;28;19969;-76
2021/10/07 07:45:52;;;;;;;;;;;;;;;13.67;79.50;102322.47;5088468;28;20424;-76
2021/10/07 07:48:20;;;;;;;;;;;;;;;13.71;79.34;102329.44;5090058;28;20026;-69
2021/10/07 07:50:49;;;;;;;;;;;;;;;13.67;79.11;102334.13;5082068;28;20003;-69
2021/10/07 07:53:17;;;;;;;;;;;;;;;13.77;79.15;102331.78;5088639;28;19976;-69
2021/10/07 07:55:45;;;;;;;;;;;;;;;13.88;79.10;102334.78;5088837;28;20021;-69
2021/10/07 07:58:17;;;;;;;;;;;;;;;14.01;78.03;102340.34;5088425;28;19976;-69
2021/10/07 08:00:44;;;;;;;;;;;;;;;13.95;77.66;102341.56;5090110;28;20000;-69
2021/10/07 08:03:13;;;;;;;;;;;;;;;13.50;78.26;102288.31;5071388;28;19972;-69
2021/10/07 08:05:41;;;;;;;;;;;;;;;13.86;78.71;102341.22;5089608;28;20482;-69
2021/10/07 08:08:09;;;;;;;;;;;;;;;13.94;78.21;102341.66;5089316;28;19980;-69
2021/10/07 08:10:37;;;;;;;;;;;;;;;14.01;78.37;102334.94;5089305;28;19988;-68
2021/10/07 08:13:05;;;;;;;;;;;;;;;14.04;78.41;102331.19;5089680;28;19969;-69
2021/10/07 08:15:34;;;;;;;;;;;;;;;14.21;77.43;102339.22;5089269;28;19968;-69
2021/10/07 08:18:02;;;;;;;;;;;;;;;14.13;77.90;102338.81;5088539;28;19972;-69
2021/10/07 08:20:32;;;;;;;;;;;;;;;14.28;77.81;102336.06;5089129;28;20431;-69
2021/10/07 08:23:00;;;;;;;;;;;;;;;14.34;78.49;102334.84;5059610;28;20442;-69
2021/10/07 08:25:27;;;;;;;;;;;;;;;14.46;77.20;102339.59;5089042;28;19965;-69
2021/10/07 08:27:55;;;;;;;;;;;;;;;14.67;76.34;102331.16;5089627;28;20335;-68
2021/10/07 08:30:24;;;;;;;;;;;;;;;14.69;76.60;102340.91;5089344;28;19984;-68
2021/10/07 08:32:53;;;;;;;;;;;;;;;14.65;76.10;102338.50;5089278;28;19987;-69
2021/10/07 08:35:21;;;;;;;;;;;;;;;14.88;74.68;102338.00;5074961;28;19984;-76
2021/10/07 08:37:49;;;;;;;;;;;;;;;14.84;75.48;102349.97;5089236;28;20041;-76
2021/10/07 08:40:17;;;;;;;;;;;;;;;14.90;75.64;102352.28;5088593;28;19947;-69
2021/10/07 08:42:45;;;;;;;;;;;;;;;14.94;75.45;102356.56;5089042;28;19972;-69
2021/10/07 08:45:13;;;;;;;;;;;;;;;14.85;74.93;102351.72;5088624;28;19968;-68
2021/10/07 08:47:42;;;;;;;;;;;;;;;14.84;75.32;102358.09;5070731;28;20019;-69
2021/10/07 08:50:13;;;;;;;;;;;;;;;14.87;75.98;102347.06;5088238;28;19984;-68
2021/10/07 08:52:41;;;;;;;;;;;;;;;14.81;75.70;102355.56;5089042;28;20701;-69
2021/10/07 08:55:09;;;;;;;;;;;;;;;14.88;75.48;102354.22;5088965;28;20450;-68
2021/10/07 08:57:38;;;;;;;;;;;;;;;14.95;75.39;102357.44;5089082;28;20071;-69
2021/10/07 09:00:07;;;;;;;;;;;;;;;15.09;74.72;102361.06;5070826;28;19972;-68
2021/10/07 09:02:35;;;;;;;;;;;;;;;15.01;74.85;102368.78;5075091;28;20008;-69
2021/10/07 09:05:07;;;;;;;;;;;;;;;15.04;73.68;102357.75;5088940;28;19979;-69
2021/10/07 09:07:52;;;;;;;;;;;;;;;14.96;74.16;102364.56;5089027;28;20003;-68
2021/10/07 09:10:20;;;;;;;;;;;;;;;15.14;73.75;102363.47;5088166;28;20362;-68
2021/10/07 09:13:02;;;;;;;;;;;;;;;15.18;74.82;102359.63;5070608;28;19972;-69
2021/10/07 09:15:31;;;;;;;;;;;;;;;15.36;74.09;102363.91;5088655;28;20027;-68
2021/10/07 09:18:02;;;;;;;;;;;;;;;15.35;73.39;102362.16;5088714;28;20076;-69
2021/10/07 09:20:34;;;;;;;;;;;;;;;15.42;73.37;102363.53;5088213;28;19980;-68
2021/10/07 09:23:08;;;;;;;;;;;;;;;15.61;72.63;102363.28;5075316;28;20250;-68
2021/10/07 09:25:55;;;;;;;;;;;;;;;15.59;73.16;102365.19;5088504;28;19972;-68
2021/10/07 09:28:24;;;;;;;;;;;;;;;15.59;72.83;102359.78;5087555;28;19972;-68
2021/10/07 09:30:56;;;;;;;;;;;;;;;15.62;73.41;102365.03;5088481;28;19992;-68
2021/10/07 09:33:35;;;;;;;;;;;;;;;15.62;72.80;102354.19;5087858;28;19972;-68
2021/10/07 09:36:14;;;;;;;;;;;;;;;15.61;73.16;102346.13;5088408;28;19972;-68
2021/10/07 09:38:44;;;;;;;;;;;;;;;15.63;73.61;102345.09;5088527;28;19968;-68
2021/10/07 09:41:13;;;;;;;;;;;;;;;15.63;73.05;102350.53;5088160;28;19972;-68
2021/10/07 09:43:42;;;;;;;;;;;;;;;15.75;73.17;102352.44;5088057;28;19969;-68
2021/10/07 09:46:10;;;;;;;;;;;;;;;15.70;73.81;102351.88;5087850;28;20423;-68
2021/10/07 09:48:39;;;;;;;;;;;;;;;15.79;73.93;102350.41;5088132;28;19975;-68
2021/10/07 09:51:12;;;;;;;;;;;;;;;15.84;73.83;102353.69;5088373;28;19988;-68
2021/10/07 09:53:44;;;;;;;;;;;;;;;15.92;73.53;102358.59;5088081;28;20438;-68
2021/10/07 09:56:24;;;;;;;;;;;;;;;15.82;72.86;102358.34;5069809;28;19977;-69
2021/10/07 09:58:52;;;;;;;;;;;;;;;15.82;72.68;102366.47;5088408;28;19968;-68
2021/10/07 10:01:20;;;;;;;;;;;;;;;15.92;72.41;102367.63;5087814;28;19973;-68
2021/10/07 10:03:48;;;;;;;;;;;;;;;16.06;72.43;102367.59;5088046;28;20018;-68
2021/10/07 10:06:16;;;;;;;;;;;;;;;16.22;71.46;102374.72;5087744;28;19953;-68
2021/10/07 10:08:45;;;;;;;;;;;;;;;16.22;71.43;102374.72;5088029;28;19980;-68
2021/10/07 10:11:13;;;;;;;;;;;;;;;16.29;70.16;102376.94;5069478;28;20039;-68
2021/10/07 10:13:42;;;;;;;;;;;;;;;16.33;71.12;102366.78;5088017;28;19972;-68
2021/10/07 10:16:11;;;;;;;;;;;;;;;16.38;70.66;102373.63;5073917;28;20505;-68
2021/10/07 10:18:39;;;;;;;;;;;;;;;16.49;70.33;102372.03;5088373;28;20071;-68
2021/10/07 10:21:08;;;;;;;;;;;;;;;16.61;70.38;102382.97;5088074;28;20496;-68
2021/10/07 10:23:38;;;;;;;;;;;;;;;16.74;69.74;102383.03;5069703;28;20026;-68
2021/10/07 10:26:11;;;;;;;;;;;;;;;16.81;69.67;102383.47;5087786;28;20376;-68
2021/10/07 10:28:49;;;;;;;;;;;;;;;16.85;68.33;102377.75;5075125;28;20385;-68
2021/10/07 10:31:19;;;;;;;;;;;;;;;16.92;69.14;102384.50;5087291;28;20409;-68
2021/10/07 10:33:48;;;;;;;;;;;;;;;16.81;68.68;102381.63;5087827;28;19972;-68
2021/10/07 10:36:33;;;;;;;;;;;;;;;16.84;68.21;102394.16;5087652;28;20018;-68
2021/10/07 10:39:01;;;;;;;;;;;;;;;16.75;68.05;102399.19;5058152;28;20323;-68
2021/10/07 10:41:44;;;;;;;;;;;;;;;16.78;68.81;102406.25;5089648;28;19972;-68
2021/10/07 10:44:29;;;;;;;;;;;;;;;16.70;69.08;102397.78;5072807;28;19968;-67
2021/10/07 10:47:01;;;;;;;;;;;;;;;16.79;69.07;102408.00;5072788;28;19988;-68
2021/10/07 10:49:39;;;;;;;;;;;;;;;16.83;68.86;102408.66;5091307;28;19973;-68
2021/10/07 10:52:13;;;;;;;;;;;;;;;16.94;68.51;102411.53;5091165;28;20332;-69
2021/10/07 10:54:45;;;;;;;;;;;;;;;16.99;67.81;102410.25;5068916;28;20413;-67
2021/10/07 10:57:27;;;;;;;;;;;;;;;16.98;67.86;102419.38;5089971;28;19968;-67
2021/10/07 11:00:08;;;;;;;;;;;;;;;17.12;67.23;102429.28;5091303;28;19972;-67
2021/10/07 11:02:37;;;;;;;;;;;;;;;16.98;67.58;102438.38;5077393;28;19973;-67
2021/10/07 11:05:13;;;;;;;;;;;;;;;16.91;67.16;102438.88;5090952;28;19976;-67
2021/10/07 11:07:41;;;;;;;;;;;;;;;16.99;67.26;102431.09;5077150;28;19978;-68
2021/10/07 11:10:11;;;;;;;;;;;;;;;16.95;66.52;102435.00;5091162;28;20446;-67
2021/10/07 11:12:56;;;;;;;;;;;;;;;17.14;66.58;102434.59;5090842;28;19984;-68
2021/10/07 11:15:26;;;;;;;;;;;;;;;17.08;66.52;102430.44;5090652;28;19978;-69
2021/10/07 11:17:54;;;;;;;;;;;;;;;17.04;66.49;102429.78;5073035;28;20445;-69
2021/10/07 11:20:24;;;;;;;;;;;;;;;17.21;65.77;102431.38;5090597;28;20448;-69
2021/10/07 11:23:03;;;;;;;;;;;;;;;17.15;65.80;102428.22;5090867;28;20421;-69
2021/10/07 11:25:31;;;;;;;;;;;;;;;17.30;66.44;102440.72;5090301;28;19976;-68
2021/10/07 11:28:01;;;;;;;;;;;;;;;17.33;66.83;102440.50;5090994;28;20411;-69
2021/10/07 11:30:30;;;;;;;;;;;;;;;17.29;66.53;102439.00;5090154;28;19976;-68
2021/10/07 11:32:59;;;;;;;;;;;;;;;17.29;65.51;102441.69;5090471;28;19998;-68
2021/10/07 11:35:28;;;;;;;;;;;;;;;17.35;66.11;102436.72;5090140;28;19998;-69
2021/10/07 11:37:57;;;;;;;;;;;;;;;17.32;65.17;102438.78;5090568;28;19972;-68
2021/10/07 11:40:27;;;;;;;;;;;;;;;17.44;64.90;102442.47;5089866;28;20063;-67
2021/10/07 11:42:56;;;;;;;;;;;;;;;17.62;64.95;102441.19;5090784;28;20016;-68
2021/10/07 11:45:27;;;;;;;;;;;;;;;17.65;65.35;102446.41;5089751;28;20500;-67
2021/10/07 11:47:55;;;;;;;;;;;;;;;17.77;64.01;102445.59;5089999;28;19999;-68
2021/10/07 11:50:25;;;;;;;;;;;;;;;17.81;64.47;102438.97;5089652;28;19982;-68
2021/10/07 11:52:55;;;;;;;;;;;;;;;17.94;64.84;102450.69;5090139;28;20347;-67
2021/10/07 11:55:25;;;;;;;;;;;;;;;18.06;65.43;102453.50;5089478;28;20443;-68
2021/10/07 11:57:53;;;;;;;;;;;;;;;18.06;62.97;102456.22;5090089;28;19976;-68
2021/10/07 12:00:36;;;;;;;;;;;;;;;18.00;64.55;102458.41;5089547;28;19980;-68
2021/10/07 12:03:08;;;;;;;;;;;;;;;17.90;62.74;102445.59;5090119;28;19984;-68
2021/10/07 12:05:36;;;;;;;;;;;;;;;17.79;62.54;102442.78;5089226;28;20042;-68
2021/10/07 12:08:05;;;;;;;;;;;;;;;17.94;63.42;102442.53;5089788;28;19976;-69
2021/10/07 12:10:33;;;;;;;;;;;;;;;17.93;63.53;102450.81;5089487;28;19956;-68
2021/10/07 12:13:15;;;;;;;;;;;;;;;17.98;64.10;102462.22;5071601;28;19991;-68
2021/10/07 12:15:46;;;;;;;;;;;;;;;18.09;63.81;102459.63;5089623;28;20050;-68
2021/10/07 12:18:15;;;;;;;;;;;;;;;18.22;64.16;102465.03;5089385;28;19979;-68
2021/10/07 12:20:55;;;;;;;;;;;;;;;18.14;62.65;102462.00;5089264;28;20366;-68
2021/10/07 12:23:23;;;;;;;;;;;;;;;18.03;63.19;102461.88;5089461;28;19972;-68
2021/10/07 12:25:55;;;;;;;;;;;;;;;17.91;63.55;102472.66;5089332;28;19972;-69
2021/10/07 12:28:23;;;;;;;;;;;;;;;17.76;63.77;102471.03;5070864;28;20288;-68
2021/10/07 12:30:57;;;;;;;;;;;;;;;17.81;63.56;102466.16;5081535;28;19980;-68
2021/10/07 12:33:27;;;;;;;;;;;;;;;17.72;64.86;102463.19;5087458;28;20439;-68
2021/10/07 12:35:56;;;;;;;;;;;;;;;17.69;63.50;102459.72;5086920;28;19999;-68
2021/10/07 12:38:24;;;;;;;;;;;;;;;17.67;64.68;102466.22;5083607;28;19972;-68
2021/10/07 12:40:52;;;;;;;;;;;;;;;17.76;65.52;102471.03;5087631;28;20443;-68
2021/10/07 12:43:21;;;;;;;;;;;;;;;17.79;65.05;102464.53;5087565;28;20397;-68
2021/10/07 12:46:03;;;;;;;;;;;;;;;17.78;64.24;102465.50;5087612;28;20459;-68
2021/10/07 12:48:46;;;;;;;;;;;;;;;17.91;64.72;102472.66;5083917;28;20188;-69
2021/10/07 12:51:14;;;;;;;;;;;;;;;17.97;65.20;102469.50;5084487;28;20368;-69
2021/10/07 12:53:43;;;;;;;;;;;;;;;18.08;65.89;102474.19;5087845;28;20193;-68
2021/10/07 12:56:12;;;;;;;;;;;;;;;18.03;64.90;102487.22;5081048;28;20516;-69